createdAt,value
2018-08-31T00:00:18.639Z,67.46
2018-08-31T00:00:40.440Z,68.15
2018-08-31T00:01:02.213Z,68.06
2018-08-31T00:01:24.002Z,67.81
2018-08-31T00:01:45.759Z,67.81
2018-08-31T00:02:07.541Z,68.34
2018-08-31T00:02:29.280Z,67.87
2018-08-31T00:02:51.061Z,67.71
2018-08-31T00:03:12.833Z,67.90
2018-08-31T00:03:34.597Z,68.12
2018-08-31T00:03:56.362Z,68.17
2018-08-31T00:04:18.138Z,68.39
2018-08-31T00:04:41.290Z,67.83
2018-08-31T00:05:03.042Z,68.03
2018-08-31T00:05:24.792Z,68.34
2018-08-31T00:05:48.816Z,68.16
2018-08-31T00:06:10.564Z,67.62
2018-08-31T00:06:32.317Z,68.31
2018-08-31T00:06:54.090Z,68.44
2018-08-31T00:07:15.908Z,67.99
2018-08-31T00:07:37.655Z,68.32
2018-08-31T00:07:59.417Z,67.59
2018-08-31T00:08:21.207Z,68.19
2018-08-31T00:08:42.965Z,67.91
2018-08-31T00:09:04.716Z,68.55
2018-08-31T00:09:26.489Z,68.22
2018-08-31T00:09:48.231Z,68.49
2018-08-31T00:10:09.972Z,67.79
2018-08-31T00:10:33.841Z,68.36
2018-08-31T00:10:55.597Z,68.39
2018-08-31T00:11:17.360Z,67.83
2018-08-31T00:11:39.118Z,67.71
2018-08-31T00:12:00.875Z,68.49
2018-08-31T00:12:22.666Z,68.43
2018-08-31T00:12:44.427Z,68.24
2018-08-31T00:13:06.551Z,67.31
2018-08-31T00:13:28.294Z,67.53
2018-08-31T00:13:50.042Z,68.10
2018-08-31T00:14:11.799Z,67.36
2018-08-31T00:14:33.553Z,67.63
2018-08-31T00:14:55.315Z,68.20
2018-08-31T00:15:17.083Z,67.47
2018-08-31T00:15:38.829Z,67.73
2018-08-31T00:16:00.570Z,68.21
2018-08-31T00:16:22.303Z,68.19
2018-08-31T00:16:44.060Z,68.27
2018-08-31T00:17:05.814Z,68.24
2018-08-31T00:17:27.631Z,68.31
2018-08-31T00:17:49.408Z,68.15
2018-08-31T00:18:11.173Z,67.96
2018-08-31T00:18:32.931Z,68.16
2018-08-31T00:18:54.675Z,67.91
2018-08-31T00:19:16.712Z,68.07
2018-08-31T00:19:38.475Z,67.62
2018-08-31T00:20:00.231Z,67.96
2018-08-31T00:20:21.991Z,67.03
2018-08-31T00:20:43.743Z,67.74
2018-08-31T00:21:05.492Z,67.80
2018-08-31T00:21:27.253Z,68.34
2018-08-31T00:21:49.020Z,67.93
2018-08-31T00:22:10.779Z,68.37
2018-08-31T00:22:32.598Z,68.06
2018-08-31T00:22:54.362Z,67.58
2018-08-31T00:23:16.111Z,67.79
2018-08-31T00:23:37.856Z,68.12
2018-08-31T00:23:59.612Z,67.70
2018-08-31T00:24:21.373Z,67.80
2018-08-31T00:24:43.375Z,67.77
2018-08-31T00:25:05.120Z,67.67
2018-08-31T00:25:26.884Z,67.83
2018-08-31T00:25:48.640Z,68.20
2018-08-31T00:26:13.908Z,67.86
2018-08-31T00:26:35.660Z,67.97
2018-08-31T00:26:57.414Z,67.56
2018-08-31T00:27:19.241Z,68.23
2018-08-31T00:27:41.015Z,67.58
2018-08-31T00:28:02.796Z,67.89
2018-08-31T00:28:24.546Z,67.72
2018-08-31T00:28:47.078Z,68.39
2018-08-31T00:29:10.138Z,68.27
2018-08-31T00:29:31.892Z,68.19
2018-08-31T00:29:53.730Z,68.78
2018-08-31T00:30:15.492Z,68.37
2018-08-31T00:30:37.251Z,68.21
2018-08-31T00:30:58.998Z,68.18
2018-08-31T00:31:20.751Z,68.54
2018-08-31T00:31:42.498Z,68.36
2018-08-31T00:32:04.255Z,67.62
2018-08-31T00:32:26.004Z,67.92
2018-08-31T00:32:47.786Z,67.69
2018-08-31T00:33:10.878Z,67.66
2018-08-31T00:33:32.622Z,67.67
2018-08-31T00:33:54.906Z,67.47
2018-08-31T00:34:16.664Z,67.03
2018-08-31T00:34:39.231Z,68.02
2018-08-31T00:35:00.991Z,67.52
2018-08-31T00:35:22.747Z,67.38
2018-08-31T00:35:44.502Z,67.69
2018-08-31T00:36:06.254Z,67.57
2018-08-31T00:36:28.004Z,68.13
2018-08-31T00:36:50.726Z,67.96
2018-08-31T00:37:12.479Z,68.45
2018-08-31T00:37:34.328Z,67.77
2018-08-31T00:37:56.599Z,67.33
2018-08-31T00:38:18.356Z,67.48
2018-08-31T00:38:40.112Z,67.88
2018-08-31T00:39:01.862Z,67.78
2018-08-31T00:39:23.632Z,67.88
2018-08-31T00:39:45.380Z,67.08
2018-08-31T00:40:07.127Z,67.91
2018-08-31T00:40:28.881Z,68.05
2018-08-31T00:40:50.622Z,68.00
2018-08-31T00:41:12.687Z,67.77
2018-08-31T00:41:34.462Z,67.45
2018-08-31T00:41:56.223Z,67.30
2018-08-31T00:42:17.962Z,67.91
2018-08-31T00:42:39.734Z,67.21
2018-08-31T00:43:01.506Z,67.62
2018-08-31T00:43:23.432Z,68.25
2018-08-31T00:43:45.190Z,67.53
2018-08-31T00:44:06.976Z,67.56
2018-08-31T00:44:28.718Z,68.31
2018-08-31T00:44:50.475Z,68.08
2018-08-31T00:45:12.219Z,67.93
2018-08-31T00:45:35.110Z,67.46
2018-08-31T00:45:58.024Z,68.10
2018-08-31T00:46:19.773Z,68.00
2018-08-31T00:46:41.527Z,67.51
2018-08-31T00:47:03.283Z,67.02
2018-08-31T00:47:25.036Z,67.35
2018-08-31T00:47:46.785Z,67.26
2018-08-31T00:48:08.963Z,68.11
2018-08-31T00:48:30.717Z,68.15
2018-08-31T00:48:52.762Z,68.30
2018-08-31T00:49:14.502Z,68.16
2018-08-31T00:49:36.263Z,67.36
2018-08-31T00:49:58.027Z,67.93
2018-08-31T00:50:19.782Z,67.58
2018-08-31T00:50:41.565Z,68.14
2018-08-31T00:51:03.371Z,67.51
2018-08-31T00:51:25.134Z,67.14
2018-08-31T00:51:46.888Z,67.06
2018-08-31T00:52:08.731Z,67.54
2018-08-31T00:52:30.477Z,67.64
2018-08-31T00:52:52.252Z,67.95
2018-08-31T00:53:14.029Z,67.65
2018-08-31T00:53:35.785Z,68.09
2018-08-31T00:53:57.538Z,67.43
2018-08-31T00:54:19.302Z,68.26
2018-08-31T00:54:41.054Z,68.06
2018-08-31T00:55:02.813Z,67.97
2018-08-31T00:55:24.583Z,67.74
2018-08-31T00:55:46.351Z,67.74
2018-08-31T00:56:08.099Z,68.12
2018-08-31T00:56:29.879Z,67.76
2018-08-31T00:56:51.632Z,67.50
2018-08-31T00:57:13.447Z,67.12
2018-08-31T00:57:35.241Z,67.21
2018-08-31T00:57:57.000Z,67.58
2018-08-31T00:58:18.792Z,67.31
2018-08-31T00:58:40.560Z,67.15
2018-08-31T00:59:02.308Z,67.29
2018-08-31T00:59:24.054Z,68.15
2018-08-31T00:59:45.846Z,67.79
2018-08-31T01:00:07.608Z,67.45
2018-08-31T01:00:29.359Z,67.46
2018-08-31T01:00:51.111Z,67.51
2018-08-31T01:01:12.876Z,68.08
2018-08-31T01:01:34.631Z,67.24
2018-08-31T01:01:56.386Z,67.15
2018-08-31T01:02:18.144Z,67.59
2018-08-31T01:02:39.894Z,68.13
2018-08-31T01:03:01.650Z,67.98
2018-08-31T01:03:23.441Z,67.10
2018-08-31T01:03:45.212Z,67.57
2018-08-31T01:04:06.987Z,68.19
2018-08-31T01:04:28.748Z,68.21
2018-08-31T01:04:51.300Z,68.11
2018-08-31T01:05:13.343Z,68.02
2018-08-31T01:05:35.095Z,68.06
2018-08-31T01:05:56.867Z,68.33
2018-08-31T01:06:18.623Z,67.62
2018-08-31T01:06:40.375Z,67.62
2018-08-31T01:07:02.129Z,67.42
2018-08-31T01:07:23.887Z,68.15
2018-08-31T01:07:45.810Z,67.45
2018-08-31T01:08:07.599Z,67.46
2018-08-31T01:08:29.394Z,68.20
2018-08-31T01:08:51.159Z,67.30
2018-08-31T01:09:12.931Z,67.71
2018-08-31T01:09:34.700Z,68.10
2018-08-31T01:09:56.446Z,67.28
2018-08-31T01:10:19.844Z,67.67
2018-08-31T01:10:41.598Z,67.70
2018-08-31T01:11:03.373Z,67.41
2018-08-31T01:11:25.152Z,68.08
2018-08-31T01:11:46.905Z,67.35
2018-08-31T01:12:09.089Z,67.15
2018-08-31T01:12:30.856Z,67.65
2018-08-31T01:12:53.378Z,67.12
2018-08-31T01:13:15.136Z,67.83
2018-08-31T01:13:36.930Z,67.21
2018-08-31T01:13:58.692Z,67.40
2018-08-31T01:14:20.444Z,67.68
2018-08-31T01:14:42.211Z,67.60
2018-08-31T01:15:03.972Z,67.91
2018-08-31T01:15:25.763Z,68.11
2018-08-31T01:15:47.490Z,67.33
2018-08-31T01:16:09.257Z,67.53
2018-08-31T01:16:30.994Z,67.22
2018-08-31T01:16:52.775Z,67.25
2018-08-31T01:17:14.543Z,67.12
2018-08-31T01:17:36.310Z,67.38
2018-08-31T01:17:58.054Z,67.67
2018-08-31T01:18:19.819Z,68.18
2018-08-31T01:18:41.616Z,67.54
2018-08-31T01:19:03.367Z,67.58
2018-08-31T01:19:25.173Z,67.29
2018-08-31T01:19:46.915Z,67.32
2018-08-31T01:20:08.712Z,67.12
2018-08-31T01:20:30.477Z,67.34
2018-08-31T01:20:52.218Z,67.36
2018-08-31T01:21:13.980Z,67.07
2018-08-31T01:21:35.730Z,67.53
2018-08-31T01:21:57.500Z,67.42
2018-08-31T01:22:19.239Z,67.68
2018-08-31T01:22:40.989Z,67.56
2018-08-31T01:23:02.752Z,68.50
2018-08-31T01:23:24.503Z,67.63
2018-08-31T01:23:46.583Z,67.56
2018-08-31T01:24:08.336Z,67.75
2018-08-31T01:24:30.095Z,67.57
2018-08-31T01:24:51.867Z,67.09
2018-08-31T01:25:13.613Z,67.54
2018-08-31T01:25:35.359Z,67.32
2018-08-31T01:25:57.115Z,67.15
2018-08-31T01:26:18.859Z,67.41
2018-08-31T01:26:40.613Z,67.09
2018-08-31T01:27:02.373Z,67.08
2018-08-31T01:27:24.125Z,67.45
2018-08-31T01:27:45.889Z,67.34
2018-08-31T01:28:07.662Z,67.36
2018-08-31T01:28:29.405Z,67.45
2018-08-31T01:28:51.212Z,68.08
2018-08-31T01:29:12.980Z,67.61
2018-08-31T01:29:34.732Z,67.38
2018-08-31T01:29:56.504Z,68.12
2018-08-31T01:30:18.263Z,67.66
2018-08-31T01:30:40.010Z,67.78
2018-08-31T01:31:01.748Z,67.41
2018-08-31T01:31:23.505Z,67.45
2018-08-31T01:31:45.247Z,68.32
2018-08-31T01:32:06.995Z,67.70
2018-08-31T01:32:28.744Z,67.84
2018-08-31T01:32:50.581Z,67.44
2018-08-31T01:33:12.331Z,67.46
2018-08-31T01:33:34.098Z,67.38
2018-08-31T01:33:55.869Z,67.65
2018-08-31T01:34:17.618Z,67.43
2018-08-31T01:34:39.386Z,67.67
2018-08-31T01:35:01.136Z,67.79
2018-08-31T01:35:22.912Z,67.58
2018-08-31T01:35:44.666Z,67.21
2018-08-31T01:36:06.422Z,67.07
2018-08-31T01:36:28.163Z,67.90
2018-08-31T01:36:49.908Z,66.95
2018-08-31T01:37:11.701Z,67.59
2018-08-31T01:37:33.455Z,67.45
2018-08-31T01:37:55.234Z,67.11
2018-08-31T01:38:16.984Z,67.90
2018-08-31T01:38:38.739Z,67.31
2018-08-31T01:39:00.543Z,67.53
2018-08-31T01:39:22.299Z,67.65
2018-08-31T01:39:44.051Z,67.61
2018-08-31T01:40:05.816Z,67.17
2018-08-31T01:40:27.570Z,66.89
2018-08-31T01:40:49.411Z,67.61
2018-08-31T01:41:11.164Z,68.05
2018-08-31T01:41:32.911Z,67.28
2018-08-31T01:41:54.647Z,67.15
2018-08-31T01:42:16.408Z,67.45
2018-08-31T01:42:38.169Z,67.52
2018-08-31T01:42:59.934Z,67.15
2018-08-31T01:43:21.687Z,67.36
2018-08-31T01:43:43.451Z,67.94
2018-08-31T01:44:05.236Z,67.75
2018-08-31T01:44:27.003Z,67.83
2018-08-31T01:44:48.759Z,67.80
2018-08-31T01:45:10.519Z,67.46
2018-08-31T01:45:32.294Z,67.33
2018-08-31T01:45:54.038Z,67.35
2018-08-31T01:46:15.804Z,67.68
2018-08-31T01:46:37.566Z,67.74
2018-08-31T01:46:59.311Z,67.25
2018-08-31T01:47:21.087Z,67.51
2018-08-31T01:47:42.837Z,67.66
2018-08-31T01:48:04.582Z,67.80
2018-08-31T01:48:26.352Z,67.52
2018-08-31T01:48:48.124Z,67.33
2018-08-31T01:49:09.932Z,67.12
2018-08-31T01:49:31.711Z,67.52
2018-08-31T01:49:53.457Z,67.68
2018-08-31T01:50:15.258Z,67.28
2018-08-31T01:50:40.398Z,67.43
2018-08-31T01:51:07.699Z,67.80
2018-08-31T01:51:29.464Z,67.03
2018-08-31T01:51:51.220Z,67.88
2018-08-31T01:52:12.973Z,67.50
2018-08-31T01:52:34.770Z,67.40
2018-08-31T01:52:56.503Z,67.23
2018-08-31T01:53:18.267Z,67.51
2018-08-31T01:53:40.014Z,67.51
2018-08-31T01:54:01.757Z,67.67
2018-08-31T01:54:23.635Z,66.98
2018-08-31T01:54:45.391Z,67.25
2018-08-31T01:55:07.133Z,67.30
2018-08-31T01:55:31.302Z,67.84
2018-08-31T01:55:53.057Z,67.65
2018-08-31T01:56:14.794Z,67.62
2018-08-31T01:56:36.541Z,67.76
2018-08-31T01:56:58.304Z,66.99
2018-08-31T01:57:20.112Z,67.88
2018-08-31T01:57:41.827Z,67.18
2018-08-31T01:58:03.590Z,67.30
2018-08-31T01:58:25.343Z,67.54
2018-08-31T01:58:47.094Z,67.14
2018-08-31T01:59:08.845Z,67.02
2018-08-31T01:59:30.616Z,67.44
2018-08-31T01:59:52.408Z,67.23
2018-08-31T02:00:14.169Z,67.28
2018-08-31T02:00:35.916Z,67.34
2018-08-31T02:00:57.678Z,67.14
2018-08-31T02:01:19.430Z,67.03
2018-08-31T02:01:41.205Z,66.77
2018-08-31T02:02:02.983Z,67.22
2018-08-31T02:02:24.810Z,67.52
2018-08-31T02:02:46.568Z,66.85
2018-08-31T02:03:08.305Z,66.98
2018-08-31T02:03:30.086Z,67.39
2018-08-31T02:03:51.852Z,67.29
2018-08-31T02:04:13.662Z,67.49
2018-08-31T02:04:35.410Z,67.62
2018-08-31T02:04:57.164Z,67.75
2018-08-31T02:05:18.928Z,67.40
2018-08-31T02:05:40.774Z,67.37
2018-08-31T02:06:02.535Z,66.87
2018-08-31T02:06:24.287Z,66.86
2018-08-31T02:06:46.035Z,67.03
2018-08-31T02:07:07.793Z,67.30
2018-08-31T02:07:29.557Z,67.19
2018-08-31T02:07:51.302Z,67.66
2018-08-31T02:08:13.055Z,67.61
2018-08-31T02:08:35.063Z,67.02
2018-08-31T02:09:02.090Z,67.29
2018-08-31T02:09:23.851Z,67.22
2018-08-31T02:09:45.679Z,67.02
2018-08-31T02:10:07.434Z,66.74
2018-08-31T02:10:29.193Z,67.05
2018-08-31T02:10:51.062Z,67.29
2018-08-31T02:11:12.827Z,67.44
2018-08-31T02:11:34.700Z,67.32
2018-08-31T02:11:56.441Z,66.79
2018-08-31T02:12:18.211Z,66.96
2018-08-31T02:12:39.954Z,67.29
2018-08-31T02:13:01.718Z,66.80
2018-08-31T02:13:23.483Z,67.22
2018-08-31T02:13:45.243Z,66.77
2018-08-31T02:14:06.997Z,67.37
2018-08-31T02:14:28.747Z,67.43
2018-08-31T02:14:50.527Z,66.93
2018-08-31T02:15:12.270Z,66.94
2018-08-31T02:15:34.024Z,67.00
2018-08-31T02:15:55.774Z,66.65
2018-08-31T02:16:17.539Z,67.29
2018-08-31T02:16:39.304Z,67.78
2018-08-31T02:17:01.052Z,66.80
2018-08-31T02:17:22.805Z,67.40
2018-08-31T02:17:44.565Z,67.32
2018-08-31T02:18:06.326Z,67.36
2018-08-31T02:18:28.081Z,66.89
2018-08-31T02:18:49.842Z,66.99
2018-08-31T02:19:11.594Z,67.50
2018-08-31T02:19:33.357Z,67.00
2018-08-31T02:19:55.143Z,67.18
2018-08-31T02:20:16.885Z,67.79
2018-08-31T02:20:38.636Z,66.88
2018-08-31T02:21:00.395Z,67.20
2018-08-31T02:21:22.130Z,67.24
2018-08-31T02:21:43.883Z,66.69
2018-08-31T02:22:05.727Z,66.59
2018-08-31T02:22:27.487Z,67.29
2018-08-31T02:22:49.243Z,66.73
2018-08-31T02:23:10.997Z,67.42
2018-08-31T02:23:32.756Z,66.68
2018-08-31T02:23:54.498Z,67.15
2018-08-31T02:24:16.272Z,66.78
2018-08-31T02:24:38.031Z,67.29
2018-08-31T02:24:59.827Z,67.17
2018-08-31T02:25:21.575Z,67.26
2018-08-31T02:25:43.334Z,67.02
2018-08-31T02:26:05.115Z,66.95
2018-08-31T02:26:26.902Z,67.09
2018-08-31T02:26:48.668Z,67.06
2018-08-31T02:27:10.422Z,67.13
2018-08-31T02:27:32.179Z,67.30
2018-08-31T02:27:53.959Z,67.51
2018-08-31T02:28:15.706Z,67.13
2018-08-31T02:28:37.463Z,67.39
2018-08-31T02:28:59.221Z,66.86
2018-08-31T02:29:20.975Z,66.84
2018-08-31T02:29:42.736Z,67.10
2018-08-31T02:30:04.549Z,67.05
2018-08-31T02:30:26.306Z,67.09
2018-08-31T02:30:48.073Z,67.18
2018-08-31T02:31:09.830Z,67.18
2018-08-31T02:31:31.632Z,66.87
2018-08-31T02:31:53.379Z,67.14
2018-08-31T02:32:15.148Z,67.43
2018-08-31T02:32:36.914Z,67.23
2018-08-31T02:32:58.658Z,67.23
2018-08-31T02:33:20.414Z,67.36
2018-08-31T02:33:42.167Z,67.09
2018-08-31T02:34:04.195Z,67.70
2018-08-31T02:34:25.966Z,67.24
2018-08-31T02:34:47.726Z,67.09
2018-08-31T02:35:09.524Z,67.48
2018-08-31T02:35:31.296Z,67.65
2018-08-31T02:35:53.046Z,67.08
2018-08-31T02:36:14.812Z,67.34
2018-08-31T02:36:36.575Z,67.19
2018-08-31T02:36:58.349Z,66.75
2018-08-31T02:37:20.097Z,66.29
2018-08-31T02:37:41.883Z,67.08
2018-08-31T02:38:03.659Z,66.62
2018-08-31T02:38:25.419Z,66.96
2018-08-31T02:38:47.186Z,66.92
2018-08-31T02:39:08.947Z,66.96
2018-08-31T02:39:30.719Z,67.21
2018-08-31T02:39:52.484Z,67.14
2018-08-31T02:40:14.322Z,66.71
2018-08-31T02:40:36.102Z,66.69
2018-08-31T02:40:58.483Z,66.67
2018-08-31T02:41:20.238Z,67.45
2018-08-31T02:41:41.984Z,66.71
2018-08-31T02:42:03.734Z,67.24
2018-08-31T02:42:25.576Z,67.49
2018-08-31T02:42:47.314Z,67.24
2018-08-31T02:43:09.080Z,67.65
2018-08-31T02:43:30.839Z,67.08
2018-08-31T02:43:52.936Z,67.72
2018-08-31T02:44:14.700Z,67.25
2018-08-31T02:44:36.444Z,66.81
2018-08-31T02:44:58.207Z,66.83
2018-08-31T02:45:19.999Z,66.83
2018-08-31T02:45:41.768Z,66.98
2018-08-31T02:46:03.536Z,66.96
2018-08-31T02:46:25.295Z,66.87
2018-08-31T02:46:47.051Z,67.50
2018-08-31T02:47:08.809Z,67.01
2018-08-31T02:47:30.583Z,67.50
2018-08-31T02:47:52.364Z,66.70
2018-08-31T02:48:14.124Z,67.05
2018-08-31T02:48:35.884Z,66.70
2018-08-31T02:48:57.634Z,67.44
2018-08-31T02:49:19.370Z,66.84
2018-08-31T02:49:41.190Z,67.35
2018-08-31T02:50:02.950Z,67.13
2018-08-31T02:50:24.792Z,67.11
2018-08-31T02:50:46.563Z,66.81
2018-08-31T02:51:08.314Z,66.78
2018-08-31T02:51:30.085Z,66.82
2018-08-31T02:51:51.843Z,66.56
2018-08-31T02:52:13.730Z,67.17
2018-08-31T02:52:35.483Z,67.11
2018-08-31T02:52:57.240Z,67.36
2018-08-31T02:53:18.994Z,66.78
2018-08-31T02:53:40.919Z,66.98
2018-08-31T02:54:02.673Z,66.91
2018-08-31T02:54:24.425Z,66.93
2018-08-31T02:54:46.187Z,67.06
2018-08-31T02:55:07.937Z,67.22
2018-08-31T02:55:29.720Z,66.64
2018-08-31T02:55:51.481Z,67.03
2018-08-31T02:56:13.919Z,67.15
2018-08-31T02:56:35.671Z,66.64
2018-08-31T02:56:57.439Z,66.51
2018-08-31T02:57:19.205Z,67.06
2018-08-31T02:57:40.969Z,67.11
2018-08-31T02:58:02.718Z,67.23
2018-08-31T02:58:24.483Z,66.71
2018-08-31T02:58:46.251Z,67.06
2018-08-31T02:59:08.001Z,67.05
2018-08-31T02:59:29.772Z,66.79
2018-08-31T02:59:51.543Z,67.13
2018-08-31T03:00:13.291Z,67.30
2018-08-31T03:00:35.148Z,66.96
2018-08-31T03:00:56.916Z,66.65
2018-08-31T03:01:18.692Z,67.13
2018-08-31T03:01:40.456Z,66.58
2018-08-31T03:02:02.265Z,66.59
2018-08-31T03:02:24.028Z,67.02
2018-08-31T03:02:45.805Z,66.88
2018-08-31T03:03:07.566Z,66.87
2018-08-31T03:03:29.350Z,66.55
2018-08-31T03:03:51.098Z,66.50
2018-08-31T03:04:12.881Z,66.59
2018-08-31T03:04:34.659Z,66.94
2018-08-31T03:04:56.424Z,67.41
2018-08-31T03:05:18.219Z,67.09
2018-08-31T03:05:40.025Z,67.25
2018-08-31T03:06:02.112Z,67.21
2018-08-31T03:06:23.876Z,67.24
2018-08-31T03:06:45.663Z,66.51
2018-08-31T03:07:07.417Z,67.09
2018-08-31T03:07:29.202Z,67.06
2018-08-31T03:07:50.986Z,67.11
2018-08-31T03:08:12.776Z,66.47
2018-08-31T03:08:34.575Z,67.39
2018-08-31T03:08:56.332Z,66.81
2018-08-31T03:09:18.082Z,66.08
2018-08-31T03:09:39.884Z,66.77
2018-08-31T03:10:01.644Z,66.85
2018-08-31T03:10:23.412Z,67.46
2018-08-31T03:10:45.282Z,66.71
2018-08-31T03:11:07.035Z,66.92
2018-08-31T03:11:28.859Z,67.31
2018-08-31T03:11:50.586Z,66.62
2018-08-31T03:12:12.422Z,66.35
2018-08-31T03:12:34.180Z,66.83
2018-08-31T03:12:55.969Z,66.63
2018-08-31T03:13:18.036Z,66.60
2018-08-31T03:13:39.796Z,66.70
2018-08-31T03:14:01.555Z,66.40
2018-08-31T03:14:23.316Z,66.41
2018-08-31T03:14:45.074Z,66.59
2018-08-31T03:15:06.838Z,66.67
2018-08-31T03:15:28.614Z,66.62
2018-08-31T03:15:50.413Z,67.21
2018-08-31T03:16:12.176Z,66.89
2018-08-31T03:16:33.954Z,66.79
2018-08-31T03:16:55.716Z,67.26
2018-08-31T03:17:17.478Z,66.67
2018-08-31T03:17:39.259Z,67.44
2018-08-31T03:18:01.006Z,67.09
2018-08-31T03:18:22.832Z,67.35
2018-08-31T03:18:44.606Z,66.67
2018-08-31T03:19:06.391Z,67.14
2018-08-31T03:19:28.163Z,67.34
2018-08-31T03:19:49.916Z,67.78
2018-08-31T03:20:11.690Z,67.23
2018-08-31T03:20:33.471Z,67.20
2018-08-31T03:20:55.302Z,66.58
2018-08-31T03:21:17.141Z,67.53
2018-08-31T03:21:38.831Z,67.59
2018-08-31T03:22:00.586Z,66.74
2018-08-31T03:22:22.333Z,67.09
2018-08-31T03:22:44.088Z,66.82
2018-08-31T03:23:05.848Z,66.30
2018-08-31T03:23:27.627Z,66.71
2018-08-31T03:23:49.390Z,66.47
2018-08-31T03:24:11.143Z,66.69
2018-08-31T03:24:32.890Z,66.39
2018-08-31T03:24:54.639Z,66.84
2018-08-31T03:25:16.408Z,66.48
2018-08-31T03:25:38.190Z,66.50
2018-08-31T03:25:59.972Z,67.14
2018-08-31T03:26:21.739Z,67.57
2018-08-31T03:26:43.480Z,66.25
2018-08-31T03:27:05.437Z,66.59
2018-08-31T03:27:27.196Z,66.95
2018-08-31T03:27:48.958Z,66.64
2018-08-31T03:28:10.715Z,66.75
2018-08-31T03:28:32.479Z,66.64
2018-08-31T03:28:54.235Z,66.31
2018-08-31T03:29:15.993Z,66.92
2018-08-31T03:29:37.753Z,66.84
2018-08-31T03:29:59.518Z,66.62
2018-08-31T03:30:21.276Z,66.72
2018-08-31T03:30:43.030Z,66.77
2018-08-31T03:31:04.807Z,66.99
2018-08-31T03:31:26.552Z,67.03
2018-08-31T03:31:48.295Z,66.61
2018-08-31T03:32:10.036Z,66.72
2018-08-31T03:32:31.794Z,66.32
2018-08-31T03:32:53.546Z,66.96
2018-08-31T03:33:15.306Z,66.47
2018-08-31T03:33:37.080Z,66.32
2018-08-31T03:33:58.841Z,66.88
2018-08-31T03:34:20.610Z,66.80
2018-08-31T03:34:42.368Z,66.84
2018-08-31T03:35:04.342Z,67.30
2018-08-31T03:35:26.339Z,67.45
2018-08-31T03:35:48.115Z,67.29
2018-08-31T03:36:09.910Z,66.60
2018-08-31T03:36:31.666Z,66.59
2018-08-31T03:36:53.454Z,66.97
2018-08-31T03:37:15.205Z,66.48
2018-08-31T03:37:36.970Z,67.07
2018-08-31T03:37:58.723Z,66.64
2018-08-31T03:38:20.492Z,66.94
2018-08-31T03:38:42.248Z,67.10
2018-08-31T03:39:04.584Z,66.68
2018-08-31T03:39:26.355Z,66.80
2018-08-31T03:39:48.120Z,66.82
2018-08-31T03:40:09.894Z,66.57
2018-08-31T03:40:31.655Z,67.35
2018-08-31T03:40:53.404Z,67.44
2018-08-31T03:41:15.208Z,66.80
2018-08-31T03:41:36.972Z,67.26
2018-08-31T03:41:59.088Z,67.27
2018-08-31T03:42:20.839Z,66.72
2018-08-31T03:42:42.686Z,67.17
2018-08-31T03:43:04.446Z,66.86
2018-08-31T03:43:26.211Z,66.36
2018-08-31T03:43:47.966Z,66.44
2018-08-31T03:44:09.731Z,67.25
2018-08-31T03:44:31.482Z,67.06
2018-08-31T03:44:53.228Z,67.14
2018-08-31T03:45:14.987Z,66.70
2018-08-31T03:45:36.756Z,67.05
2018-08-31T03:45:58.518Z,66.79
2018-08-31T03:46:20.293Z,66.94
2018-08-31T03:46:42.082Z,66.82
2018-08-31T03:47:03.834Z,66.83
2018-08-31T03:47:25.600Z,67.36
2018-08-31T03:47:47.565Z,67.06
2018-08-31T03:48:09.340Z,66.52
2018-08-31T03:48:31.094Z,67.18
2018-08-31T03:48:52.834Z,66.79
2018-08-31T03:49:14.667Z,67.12
2018-08-31T03:49:36.432Z,67.35
2018-08-31T03:49:58.222Z,66.91
2018-08-31T03:50:19.990Z,66.65
2018-08-31T03:50:41.755Z,66.36
2018-08-31T03:51:03.521Z,66.92
2018-08-31T03:51:25.332Z,66.62
2018-08-31T03:51:47.091Z,66.97
2018-08-31T03:52:08.876Z,66.45
2018-08-31T03:52:30.652Z,66.67
2018-08-31T03:52:52.409Z,67.33
2018-08-31T03:53:14.173Z,66.85
2018-08-31T03:53:35.948Z,66.68
2018-08-31T03:53:57.720Z,66.77
2018-08-31T03:54:19.482Z,66.95
2018-08-31T03:54:41.255Z,67.24
2018-08-31T03:55:03.028Z,66.86
2018-08-31T03:55:24.805Z,67.23
2018-08-31T03:55:46.569Z,66.54
2018-08-31T03:56:08.388Z,66.72
2018-08-31T03:56:30.182Z,66.99
2018-08-31T03:56:51.947Z,66.55
2018-08-31T03:57:13.734Z,66.67
2018-08-31T03:57:35.501Z,66.48
2018-08-31T03:57:57.263Z,66.90
2018-08-31T03:58:19.026Z,67.57
2018-08-31T03:58:40.807Z,67.16
2018-08-31T03:59:02.566Z,66.54
2018-08-31T03:59:24.328Z,66.79
2018-08-31T03:59:46.130Z,66.73
2018-08-31T04:00:07.894Z,66.60
2018-08-31T04:00:29.665Z,66.63
2018-08-31T04:00:51.440Z,66.64
2018-08-31T04:01:13.210Z,66.53
2018-08-31T04:01:35.002Z,66.59
2018-08-31T04:01:56.776Z,67.17
2018-08-31T04:02:18.554Z,66.65
2018-08-31T04:02:40.316Z,66.95
2018-08-31T04:03:02.063Z,66.34
2018-08-31T04:03:23.840Z,66.72
2018-08-31T04:03:45.600Z,66.59
2018-08-31T04:04:07.359Z,66.45
2018-08-31T04:04:29.124Z,66.54
2018-08-31T04:04:52.901Z,67.21
2018-08-31T04:05:14.669Z,66.63
2018-08-31T04:05:36.442Z,67.02
2018-08-31T04:05:58.202Z,67.04
2018-08-31T04:06:19.971Z,66.64
2018-08-31T04:06:41.754Z,66.72
2018-08-31T04:07:03.533Z,66.44
2018-08-31T04:07:25.290Z,66.77
2018-08-31T04:07:47.044Z,66.73
2018-08-31T04:08:08.846Z,67.22
2018-08-31T04:08:30.595Z,66.95
2018-08-31T04:08:52.349Z,67.17
2018-08-31T04:09:14.162Z,66.54
2018-08-31T04:09:35.930Z,67.01
2018-08-31T04:09:57.671Z,67.43
2018-08-31T04:10:19.426Z,66.27
2018-08-31T04:10:41.192Z,67.17
2018-08-31T04:11:02.984Z,66.99
2018-08-31T04:11:24.742Z,66.74
2018-08-31T04:11:46.537Z,66.98
2018-08-31T04:12:08.281Z,66.75
2018-08-31T04:12:30.046Z,66.86
2018-08-31T04:12:51.812Z,66.95
2018-08-31T04:13:13.559Z,66.43
2018-08-31T04:13:35.314Z,67.45
2018-08-31T04:13:57.080Z,66.81
2018-08-31T04:14:18.850Z,67.25
2018-08-31T04:14:40.611Z,67.05
2018-08-31T04:15:02.430Z,66.96
2018-08-31T04:15:24.154Z,66.78
2018-08-31T04:15:45.928Z,67.15
2018-08-31T04:16:07.685Z,66.44
2018-08-31T04:16:29.459Z,66.78
2018-08-31T04:16:51.252Z,66.38
2018-08-31T04:17:13.019Z,66.85
2018-08-31T04:17:34.781Z,66.74
2018-08-31T04:17:56.573Z,67.30
2018-08-31T04:18:18.361Z,66.80
2018-08-31T04:18:40.124Z,67.33
2018-08-31T04:19:07.311Z,66.70
2018-08-31T04:19:29.127Z,66.70
2018-08-31T04:19:50.900Z,67.39
2018-08-31T04:20:12.643Z,66.86
2018-08-31T04:20:34.394Z,66.57
2018-08-31T04:20:56.168Z,67.16
2018-08-31T04:21:17.931Z,66.78
2018-08-31T04:21:39.679Z,66.97
2018-08-31T04:22:01.454Z,66.42
2018-08-31T04:22:23.213Z,66.89
2018-08-31T04:22:44.964Z,66.84
2018-08-31T04:23:06.725Z,67.28
2018-08-31T04:23:28.490Z,66.94
2018-08-31T04:23:50.241Z,66.84
2018-08-31T04:24:12.877Z,66.93
2018-08-31T04:24:34.634Z,66.58
2018-08-31T04:24:56.395Z,66.81
2018-08-31T04:25:18.164Z,66.87
2018-08-31T04:25:39.937Z,67.14
2018-08-31T04:26:01.682Z,66.93
2018-08-31T04:26:23.435Z,67.22
2018-08-31T04:26:45.907Z,66.90
2018-08-31T04:27:07.690Z,66.45
2018-08-31T04:27:29.452Z,66.27
2018-08-31T04:27:51.210Z,66.55
2018-08-31T04:28:12.963Z,66.52
2018-08-31T04:28:34.703Z,67.04
2018-08-31T04:28:56.467Z,66.72
2018-08-31T04:29:18.231Z,66.93
2018-08-31T04:29:39.989Z,67.13
2018-08-31T04:30:01.775Z,67.23
2018-08-31T04:30:23.540Z,66.50
2018-08-31T04:30:45.335Z,67.27
2018-08-31T04:31:07.091Z,66.81
2018-08-31T04:31:28.882Z,66.46
2018-08-31T04:31:50.663Z,66.88
2018-08-31T04:32:12.649Z,66.72
2018-08-31T04:33:02.527Z,66.72
2018-08-31T04:33:24.299Z,66.64
2018-08-31T04:33:46.074Z,66.83
2018-08-31T04:34:08.477Z,66.66
2018-08-31T04:34:30.258Z,66.48
2018-08-31T04:34:52.012Z,66.86
2018-08-31T04:35:13.758Z,66.78
2018-08-31T04:35:35.532Z,66.73
2018-08-31T04:35:57.307Z,66.76
2018-08-31T04:36:19.084Z,66.56
2018-08-31T04:36:41.753Z,66.96
2018-08-31T04:37:03.497Z,66.88
2018-08-31T04:37:25.279Z,66.62
2018-08-31T04:37:47.041Z,67.12
2018-08-31T04:38:08.815Z,66.65
2018-08-31T04:38:30.558Z,66.82
2018-08-31T04:38:52.289Z,67.65
2018-08-31T04:39:14.075Z,67.21
2018-08-31T04:39:35.832Z,67.10
2018-08-31T04:39:57.585Z,66.64
2018-08-31T04:40:19.330Z,67.33
2018-08-31T04:40:41.093Z,66.48
2018-08-31T04:41:02.872Z,66.93
2018-08-31T04:41:24.659Z,66.76
2018-08-31T04:41:46.410Z,66.34